createdAt,value
2019-06-01T00:00:54.136Z,31.83
2019-06-01T00:05:59.385Z,29.83
2019-06-01T00:11:04.119Z,32.73
2019-06-01T00:16:08.769Z,29.87
2019-06-01T00:21:13.603Z,32.77
2019-06-01T00:26:18.353Z,28.20
2019-06-01T00:31:22.894Z,29.60
2019-06-01T00:36:27.529Z,37.27
2019-06-01T00:41:32.159Z,36.33
2019-06-01T00:46:36.915Z,29.27
2019-06-01T00:51:42.749Z,27.20
2019-06-01T00:56:47.739Z,30.93
2019-06-01T01:01:52.577Z,26.50
2019-06-01T01:06:57.427Z,31.63
2019-06-01T01:12:02.063Z,29.30
2019-06-01T01:17:06.806Z,33.03
2019-06-01T01:22:11.555Z,30.13
2019-06-01T01:27:16.297Z,31.47
2019-06-01T01:32:21.039Z,27.97
2019-06-01T01:37:25.782Z,34.17
2019-06-01T01:42:30.514Z,26.93
2019-06-01T01:47:35.158Z,28.23
2019-06-01T01:52:39.911Z,29.90
2019-06-01T01:57:44.552Z,31.23
2019-06-01T02:02:49.199Z,31.00
2019-06-01T02:07:54.868Z,33.70
2019-06-01T02:13:00.007Z,33.60
2019-06-01T02:18:05.154Z,28.30
2019-06-01T02:23:09.799Z,31.63
2019-06-01T02:28:14.551Z,29.97
2019-06-01T02:33:19.192Z,26.63
2019-06-01T02:38:23.822Z,28.83
2019-06-01T02:43:28.474Z,27.97
2019-06-01T02:48:34.247Z,26.50
2019-06-01T02:53:38.875Z,26.63
2019-06-01T02:58:43.526Z,24.50
2019-06-01T03:03:48.267Z,30.60
2019-06-01T03:08:53.411Z,28.10
2019-06-01T03:14:00.325Z,25.70
2019-06-01T03:19:05.973Z,27.80
2019-06-01T03:24:13.026Z,28.87
2019-06-01T03:29:19.259Z,30.70
2019-06-01T03:34:23.998Z,29.80
2019-06-01T03:39:28.642Z,26.80
2019-06-01T03:44:33.277Z,27.33
2019-06-01T03:49:37.911Z,29.30
2019-06-01T03:54:42.664Z,26.87
2019-06-01T03:59:47.409Z,26.17
2019-06-01T04:04:52.153Z,26.67
2019-06-01T04:09:57.139Z,26.70
2019-06-01T04:15:08.482Z,21.67
2019-06-01T04:20:08.549Z,19.70
2019-06-01T04:25:13.276Z,26.43
2019-06-01T04:30:19.562Z,23.93
2019-06-01T04:35:24.201Z,27.37
2019-06-01T04:40:28.941Z,23.80
2019-06-01T04:45:34.097Z,24.77
2019-06-01T04:50:38.735Z,26.60
2019-06-01T04:55:45.036Z,24.37
2019-06-01T05:00:51.600Z,27.70
2019-06-01T05:05:58.086Z,23.33
2019-06-01T05:11:05.729Z,22.67
2019-06-01T05:16:13.383Z,23.47
2019-06-01T05:21:23.006Z,24.23
2019-06-01T05:26:28.160Z,24.27
2019-06-01T05:31:34.401Z,24.43
2019-06-01T05:36:39.088Z,24.97
2019-06-01T05:41:44.123Z,26.93
2019-06-01T05:46:49.149Z,23.07
2019-06-01T05:51:55.368Z,27.10
2019-06-01T05:57:00.062Z,24.80
2019-06-01T06:02:05.697Z,19.67
2019-06-01T06:07:14.729Z,21.50
2019-06-01T06:12:22.386Z,22.77
2019-06-01T06:17:28.731Z,21.27
2019-06-01T06:22:33.299Z,28.87
2019-06-01T06:27:39.690Z,17.03
2019-06-01T06:38:45.602Z,29.60
2019-06-01T06:43:50.339Z,23.27
2019-06-01T06:48:56.525Z,13.63
2019-06-01T06:54:06.739Z,18.37
2019-06-01T06:59:11.958Z,16.67
2019-06-01T07:04:19.241Z,13.47
2019-06-01T07:09:28.208Z,17.83
2019-06-01T07:14:33.352Z,13.47
2019-06-01T07:19:39.631Z,9.67
2019-06-01T07:24:44.377Z,12.80
2019-06-01T07:29:51.460Z,15.03
2019-06-01T07:35:00.951Z,12.30
2019-06-01T07:40:13.642Z,10.87
2019-06-01T07:51:29.734Z,11.17
2019-06-01T07:56:34.638Z,12.63
2019-06-01T08:01:39.534Z,11.90
2019-06-01T08:06:47.756Z,12.60
2019-06-01T08:11:52.470Z,13.63
2019-06-01T08:16:58.790Z,12.77
2019-06-01T08:22:04.837Z,8.67
2019-06-01T08:27:11.848Z,10.80
2019-06-01T08:32:17.967Z,8.53
2019-06-01T08:37:23.500Z,23.13
2019-06-01T08:42:29.469Z,7.63
2019-06-01T08:47:34.711Z,8.17
2019-06-01T08:52:41.089Z,9.33
2019-06-01T08:57:46.015Z,11.03
2019-06-01T09:02:52.921Z,9.23
2019-06-01T09:07:59.009Z,13.07
2019-06-01T09:13:03.779Z,9.17
2019-06-01T09:18:08.668Z,8.30
2019-06-01T09:23:14.846Z,7.43
2019-06-01T09:28:20.130Z,8.27
2019-06-01T09:33:26.043Z,10.40
2019-06-01T09:38:31.592Z,7.10
2019-06-01T09:43:37.198Z,7.93
2019-06-01T09:48:42.042Z,7.47
2019-06-01T09:53:47.056Z,6.60
2019-06-01T09:58:52.161Z,10.07
2019-06-01T10:03:58.214Z,7.80
2019-06-01T10:09:04.101Z,7.30
2019-06-01T10:14:10.488Z,11.20
2019-06-01T10:19:15.341Z,7.90
2019-06-01T10:24:21.933Z,7.17
2019-06-01T10:29:28.524Z,7.83
2019-06-01T10:34:35.660Z,7.60
2019-06-01T10:39:41.488Z,9.67
2019-06-01T10:44:46.353Z,6.50
2019-06-01T10:49:51.178Z,8.10
2019-06-01T10:54:56.025Z,6.77
2019-06-01T11:00:01.056Z,9.13
2019-06-01T11:05:08.094Z,7.40
2019-06-01T11:10:14.554Z,7.63
2019-06-01T11:15:23.290Z,7.20
2019-06-01T11:20:29.362Z,8.50
2019-06-01T11:25:35.570Z,7.70
2019-06-01T11:30:41.801Z,7.47
2019-06-01T11:35:47.798Z,10.33
2019-06-01T11:40:53.936Z,6.60
2019-06-01T11:46:00.037Z,6.93
2019-06-01T11:51:05.019Z,6.97
2019-06-01T11:56:09.862Z,6.40
2019-06-01T12:01:14.591Z,6.90
2019-06-01T12:06:19.954Z,6.87
2019-06-01T12:11:25.654Z,6.73
2019-06-01T12:16:31.905Z,9.27
2019-06-01T12:21:38.839Z,7.50
2019-06-01T12:26:43.991Z,10.90
2019-06-01T12:31:48.796Z,8.63
2019-06-01T12:36:54.804Z,8.10
2019-06-01T12:41:59.610Z,10.70
2019-06-01T12:47:04.358Z,8.53
2019-06-01T12:52:09.301Z,8.93
2019-06-01T12:57:14.397Z,8.03
2019-06-01T13:02:19.201Z,9.17
2019-06-01T13:07:23.949Z,9.30
2019-06-01T13:12:29.545Z,7.87
2019-06-01T13:17:34.265Z,8.87
2019-06-01T13:22:39.111Z,9.50
2019-06-01T13:27:46.381Z,7.80
2019-06-01T13:32:52.747Z,8.30
2019-06-01T13:38:11.921Z,7.73
2019-06-01T13:43:05.551Z,15.78
2019-06-01T13:48:10.405Z,8.50
2019-06-01T13:53:15.586Z,13.30
2019-06-01T13:58:21.073Z,10.83
2019-06-01T14:03:25.861Z,14.93
2019-06-01T14:08:32.349Z,18.10
2019-06-01T14:13:37.294Z,16.13
2019-06-01T14:18:43.685Z,9.77
2019-06-01T14:23:50.126Z,11.83
2019-06-01T14:28:56.962Z,16.50
2019-06-01T14:34:02.821Z,16.60
2019-06-01T14:39:08.057Z,12.00
2019-06-01T14:44:12.715Z,12.97
2019-06-01T14:49:17.357Z,10.60
2019-06-01T14:54:22.019Z,10.87
2019-06-01T14:59:26.775Z,9.93
2019-06-01T15:04:35.791Z,12.13
2019-06-01T15:09:40.531Z,10.73
2019-06-01T15:14:45.486Z,13.30
2019-06-01T15:19:54.080Z,9.60
2019-06-01T15:24:58.987Z,10.63
2019-06-01T15:30:05.453Z,9.70
2019-06-01T15:35:10.609Z,13.07
2019-06-01T15:40:15.348Z,14.57
2019-06-01T15:45:20.713Z,12.43
2019-06-01T15:50:26.786Z,9.50
2019-06-01T15:55:31.626Z,16.43
2019-06-01T16:00:36.382Z,8.87
2019-06-01T16:05:41.218Z,15.20
2019-06-01T16:10:48.523Z,12.87
2019-06-01T16:15:53.329Z,9.43
2019-06-01T16:20:58.325Z,11.60
2019-06-01T16:26:15.456Z,10.87
2019-06-01T16:31:10.483Z,10.57
2019-06-01T16:36:15.404Z,14.57
2019-06-01T16:41:20.123Z,13.07
2019-06-01T16:46:25.111Z,10.23
2019-06-01T16:51:50.352Z,10.70
2019-06-01T16:56:58.032Z,9.43
2019-06-01T17:02:03.398Z,13.30
2019-06-01T17:07:09.778Z,13.13
2019-06-01T17:12:15.348Z,16.00
2019-06-01T17:17:21.830Z,11.90
2019-06-01T17:22:26.476Z,14.33
2019-06-01T17:27:31.115Z,16.73
2019-06-01T17:32:35.758Z,18.03
2019-06-01T17:37:40.358Z,14.67
2019-06-01T17:42:45.148Z,12.90
2019-06-01T17:47:49.824Z,14.73
2019-06-01T17:52:56.158Z,12.97
2019-06-01T17:58:01.566Z,13.67
2019-06-01T18:03:07.965Z,17.70
2019-06-01T18:08:13.691Z,16.93
2019-06-01T18:13:18.625Z,13.90
2019-06-01T18:18:23.266Z,16.30
2019-06-01T18:23:29.239Z,21.10
2019-06-01T18:28:34.359Z,16.50
2019-06-01T18:33:39.604Z,16.03
2019-06-01T18:38:44.600Z,18.47
2019-06-01T18:43:49.461Z,18.87
2019-06-01T18:48:55.215Z,16.70
2019-06-01T18:54:01.382Z,15.83
2019-06-01T18:59:08.536Z,13.93
2019-06-01T19:04:13.849Z,18.97
2019-06-01T19:09:21.850Z,13.23
2019-06-01T19:14:26.926Z,13.27
2019-06-01T19:19:31.671Z,16.13
2019-06-01T19:24:36.406Z,13.77
2019-06-01T19:29:41.558Z,17.50
2019-06-01T19:34:47.838Z,16.50
2019-06-01T19:39:52.684Z,13.63
2019-06-01T19:44:57.862Z,18.70
2019-06-01T19:50:02.765Z,17.23
2019-06-01T19:55:08.943Z,12.87
2019-06-01T20:00:18.427Z,17.63
2019-06-01T20:05:23.415Z,16.03
2019-06-01T20:10:28.421Z,20.17
2019-06-01T20:15:33.802Z,15.87
2019-06-01T20:20:39.379Z,16.33
2019-06-01T20:25:46.199Z,17.60
2019-06-01T20:30:52.106Z,14.50
2019-06-01T20:35:58.314Z,15.73
2019-06-01T20:41:03.136Z,19.40
2019-06-01T20:46:07.917Z,14.37
2019-06-01T20:51:13.161Z,17.43
2019-06-01T20:56:19.350Z,18.80
2019-06-01T21:01:26.006Z,18.10
2019-06-01T21:06:31.859Z,19.83
2019-06-01T21:11:37.579Z,16.63
2019-06-01T21:16:43.805Z,13.97
2019-06-01T21:21:49.897Z,15.90
2019-06-01T21:26:56.267Z,19.47
2019-06-01T21:32:01.518Z,16.97
2019-06-01T21:37:06.271Z,16.70
2019-06-01T21:42:11.377Z,17.43
2019-06-01T21:47:17.599Z,19.83
2019-06-01T21:52:22.438Z,18.37
2019-06-01T21:57:28.614Z,17.97
2019-06-01T22:02:34.019Z,43.83
2019-06-01T22:07:38.922Z,25.20
2019-06-01T22:12:44.909Z,16.03
2019-06-01T22:17:51.040Z,21.43
2019-06-01T22:22:55.736Z,16.93
2019-06-01T22:28:00.353Z,16.63
2019-06-01T22:33:06.634Z,15.20
2019-06-01T22:38:12.219Z,16.60
2019-06-01T22:43:17.047Z,14.47
2019-06-01T22:48:22.499Z,14.47
2019-06-01T22:53:28.335Z,18.00
2019-06-01T22:58:33.632Z,16.23
2019-06-01T23:03:38.372Z,15.00
2019-06-01T23:08:43.017Z,12.93
2019-06-01T23:13:53.285Z,16.63
2019-06-01T23:18:53.823Z,14.87
2019-06-01T23:23:58.600Z,14.80
2019-06-01T23:29:03.325Z,23.87
2019-06-01T23:34:08.067Z,16.23
2019-06-01T23:39:12.813Z,17.63
2019-06-01T23:44:18.167Z,17.33
2019-06-01T23:49:23.113Z,17.20
2019-06-01T23:54:29.438Z,18.07
2019-06-01T23:59:34.396Z,25.17
